TimeEST,TemperatureF,Dew PointF,Humidity,Sea Level PressureIn,VisibilityMPH,Wind Direction,Wind SpeedMPH,Gust SpeedMPH,PrecipitationIn,Events,Conditions,WindDirDegrees,DateUTC
12:53 AM,75.0,66.9,76,30.01,10.0,SE,6.9,-,N/A,,Partly Cloudy,140,2014-03-05 05:53:00
1:53 AM,75.0,66.0,73,29.99,10.0,SE,8.1,-,N/A,,Partly Cloudy,140,2014-03-05 06:53:00
2:53 AM,75.0,64.9,71,29.97,10.0,SE,8.1,-,N/A,,Partly Cloudy,140,2014-03-05 07:53:00
3:53 AM,75.0,64.9,71,29.96,10.0,SSE,6.9,-,N/A,,Scattered Clouds,150,2014-03-05 08:53:00
4:53 AM,75.0,66.0,73,29.97,10.0,SSE,5.8,-,N/A,,Scattered Clouds,160,2014-03-05 09:53:00
5:53 AM,75.0,66.0,73,29.99,10.0,Calm,Calm,-,N/A,,Scattered Clouds,0,2014-03-05 10:53:00
6:53 AM,73.9,66.9,79,30.00,10.0,Calm,Calm,-,N/A,,Scattered Clouds,0,2014-03-05 11:53:00
7:53 AM,75.9,68.0,76,30.03,10.0,South,3.5,-,N/A,,Mostly Cloudy,170,2014-03-05 12:53:00
8:53 AM,78.1,68.0,71,30.04,10.0,South,6.9,-,N/A,,Mostly Cloudy,170,2014-03-05 13:53:00
9:53 AM,79.0,66.9,66,30.05,10.0,SSW,6.9,-,N/A,,Mostly Cloudy,200,2014-03-05 14:53:00
10:53 AM,82.0,66.9,60,30.03,10.0,SSE,10.4,-,N/A,,Mostly Cloudy,150,2014-03-05 15:53:00
11:53 AM,84.0,62.1,47,30.01,10.0,SE,12.7,-,N/A,,Mostly Cloudy,140,2014-03-05 16:53:00
12:53 PM,82.9,68.0,60,29.99,10.0,SE,16.1,21.9,N/A,,Mostly Cloudy,130,2014-03-05 17:53:00
1:53 PM,82.0,69.1,65,29.96,10.0,SE,15.0,-,N/A,,Mostly Cloudy,130,2014-03-05 18:53:00
2:53 PM,80.1,69.1,69,29.94,10.0,SE,12.7,-,N/A,,Mostly Cloudy,140,2014-03-05 19:53:00
3:53 PM,79.0,69.1,72,29.94,10.0,SE,16.1,-,N/A,,Overcast,140,2014-03-05 20:53:00
4:25 PM,78.8,71.6,78,29.94,2.0,South,10.4,17.3,0.06,Rain,Heavy Rain,190,2014-03-05 21:25:00
4:31 PM,73.4,69.8,88,29.96,1.8,WNW,11.5,18.4,0.12,Rain,Heavy Rain,300,2014-03-05 21:31:00
4:53 PM,71.1,69.1,93,29.97,1.0,SSE,8.1,-,0.50,Rain,Heavy Rain,160,2014-03-05 21:53:00
5:08 PM,71.6,69.8,94,29.96,2.0,East,11.5,-,0.19,Rain,Rain,100,2014-03-05 22:08:00
5:10 PM,71.6,69.8,94,29.96,3.0,East,12.7,-,0.19,Rain,Rain,100,2014-03-05 22:10:00
5:53 PM,73.0,68.0,84,29.95,10.0,SE,5.8,-,0.20,,Mostly Cloudy,140,2014-03-05 22:53:00
6:53 PM,73.9,69.1,85,29.95,10.0,SSE,4.6,-,N/A,,Mostly Cloudy,150,2014-03-05 23:53:00
7:53 PM,75.0,70.0,84,29.97,10.0,Calm,Calm,-,N/A,,Scattered Clouds,0,2014-03-06 00:53:00
8:53 PM,72.0,70.0,93,29.99,10.0,Calm,Calm,-,N/A,,Mostly Cloudy,0,2014-03-06 01:53:00
9:53 PM,75.0,71.1,87,29.99,10.0,Calm,Calm,-,N/A,,Mostly Cloudy,0,2014-03-06 02:53:00
10:53 PM,75.0,71.1,87,30.00,10.0,SW,3.5,-,N/A,,Mostly Cloudy,230,2014-03-06 03:53:00
11:53 PM,72.0,71.1,97,30.01,10.0,Calm,Calm,-,N/A,,Mostly Cloudy,0,2014-03-06 04:53:00